sensor_id;sensor_type;location;lat;lon;timestamp;temperature;humidity
15407;DHT22;7802;51.568;6.364;2022-09-01T06:03:19;15.60;99.90
15407;DHT22;7802;51.568;6.364;2022-09-01T06:06:08;15.70;99.90
15407;DHT22;7802;51.568;6.364;2022-09-01T06:08:59;15.70;99.90
15407;DHT22;7802;51.568;6.364;2022-09-01T06:11:47;15.90;99.90
15407;DHT22;7802;51.568;6.364;2022-09-01T06:14:35;15.90;99.90
15407;DHT22;7802;51.568;6.364;2022-09-01T06:17:24;16.10;99.90
15407;DHT22;7802;51.568;6.364;2022-09-01T06:20:16;16.20;99.90
15407;DHT22;7802;51.568;6.364;2022-09-01T06:23:04;16.30;99.90
15407;DHT22;7802;51.568;6.364;2022-09-01T06:25:52;16.40;99.90
15407;DHT22;7802;51.568;6.364;2022-09-01T06:28:40;16.50;99.90
15407;DHT22;7802;51.568;6.364;2022-09-01T06:31:29;16.50;99.90
15407;DHT22;7802;51.568;6.364;2022-09-01T06:34:25;16.60;99.90
15407;DHT22;7802;51.568;6.364;2022-09-01T06:37:13;16.70;99.90
15407;DHT22;7802;51.568;6.364;2022-09-01T06:40:04;16.70;99.90
15407;DHT22;7802;51.568;6.364;2022-09-01T06:42:52;16.80;99.90
15407;DHT22;7802;51.568;6.364;2022-09-01T06:45:41;16.80;99.90
15407;DHT22;7802;51.568;6.364;2022-09-01T06:48:28;16.90;99.90
15407;DHT22;7802;51.568;6.364;2022-09-01T06:51:25;17.00;99.90
15407;DHT22;7802;51.568;6.364;2022-09-01T06:54:16;17.00;99.90
15407;DHT22;7802;51.568;6.364;2022-09-01T06:57:07;17.10;99.90
15407;DHT22;7802;51.568;6.364;2022-09-01T07:00:14;17.20;99.90
15407;DHT22;7802;51.568;6.364;2022-09-01T07:03:03;17.20;99.90
15407;DHT22;7802;51.568;6.364;2022-09-01T07:06:05;17.30;99.90
15407;DHT22;7802;51.568;6.364;2022-09-01T07:09:11;17.40;99.90
15407;DHT22;7802;51.568;6.364;2022-09-01T07:12:40;17.40;99.90
15407;DHT22;7802;51.568;6.364;2022-09-01T07:15:52;17.70;99.90
15407;DHT22;7802;51.568;6.364;2022-09-01T07:19:03;17.80;99.90
15407;DHT22;7802;51.568;6.364;2022-09-01T07:21:53;18.00;99.90
15407;DHT22;7802;51.568;6.364;2022-09-01T07:25:05;18.20;99.90
15407;DHT22;7802;51.568;6.364;2022-09-01T07:28:28;18.40;99.90
15407;DHT22;7802;51.568;6.364;2022-09-01T07:31:27;18.70;99.90
15407;DHT22;7802;51.568;6.364;2022-09-01T07:34:34;18.80;99.90
15407;DHT22;7802;51.568;6.364;2022-09-01T07:37:42;19.00;99.90
15407;DHT22;7802;51.568;6.364;2022-09-01T07:40:50;19.20;99.90
15407;DHT22;7802;51.568;6.364;2022-09-01T07:44:23;19.20;99.90
15407;DHT22;7802;51.568;6.364;2022-09-01T07:47:50;19.40;99.90
15407;DHT22;7802;51.568;6.364;2022-09-01T07:50:42;19.70;99.90
15407;DHT22;7802;51.568;6.364;2022-09-01T07:53:53;19.80;99.90
15407;DHT22;7802;51.568;6.364;2022-09-01T07:56:42;20.00;99.90
15407;DHT22;7802;51.568;6.364;2022-09-01T07:59:31;20.10;99.90
15407;DHT22;7802;51.568;6.364;2022-09-01T08:02:25;20.20;99.90
15407;DHT22;7802;51.568;6.364;2022-09-01T08:05:15;20.50;99.90
15407;DHT22;7802;51.568;6.364;2022-09-01T08:08:08;20.70;99.90
15407;DHT22;7802;51.568;6.364;2022-09-01T08:11:16;20.80;99.90
15407;DHT22;7802;51.568;6.364;2022-09-01T08:14:21;20.90;99.90
15407;DHT22;7802;51.568;6.364;2022-09-01T08:17:10;21.10;99.90
15407;DHT22;7802;51.568;6.364;2022-09-01T08:20:19;21.30;99.90
15407;DHT22;7802;51.568;6.364;2022-09-01T08:23:19;21.50;99.20
15407;DHT22;7802;51.568;6.364;2022-09-01T08:26:12;21.70;98.30
15407;DHT22;7802;51.568;6.364;2022-09-01T08:28:59;21.90;97.90
15407;DHT22;7802;51.568;6.364;2022-09-01T08:31:55;22.10;97.30
15407;DHT22;7802;51.568;6.364;2022-09-01T08:34:45;22.10;97.40
15407;DHT22;7802;51.568;6.364;2022-09-01T08:37:32;22.30;97.10
15407;DHT22;7802;51.568;6.364;2022-09-01T08:40:20;22.40;96.40
15407;DHT22;7802;51.568;6.364;2022-09-01T08:43:17;22.50;96.30
15407;DHT22;7802;51.568;6.364;2022-09-01T08:46:11;22.70;96.20
15407;DHT22;7802;51.568;6.364;2022-09-01T08:49:00;22.80;95.80
15407;DHT22;7802;51.568;6.364;2022-09-01T08:52:30;23.00;95.50
15407;DHT22;7802;51.568;6.364;2022-09-01T08:55:25;23.30;95.20
15407;DHT22;7802;51.568;6.364;2022-09-01T08:58:15;23.40;94.60
15407;DHT22;7802;51.568;6.364;2022-09-01T09:01:33;23.70;94.90
15407;DHT22;7802;51.568;6.364;2022-09-01T09:04:43;23.80;93.60
15407;DHT22;7802;51.568;6.364;2022-09-01T09:07:53;23.70;92.80
15407;DHT22;7802;51.568;6.364;2022-09-01T09:10:57;23.80;93.00
15407;DHT22;7802;51.568;6.364;2022-09-01T09:13:53;23.90;92.40
15407;DHT22;7802;51.568;6.364;2022-09-01T09:16:46;23.80;91.80
15407;DHT22;7802;51.568;6.364;2022-09-01T09:19:41;24.00;91.60
15407;DHT22;7802;51.568;6.364;2022-09-01T09:22:29;24.20;91.60
15407;DHT22;7802;51.568;6.364;2022-09-01T09:25:18;24.20;90.90
15407;DHT22;7802;51.568;6.364;2022-09-01T09:28:05;24.20;90.70
15407;DHT22;7802;51.568;6.364;2022-09-01T09:31:30;24.40;90.80
15407;DHT22;7802;51.568;6.364;2022-09-01T09:34:29;24.50;90.70
15407;DHT22;7802;51.568;6.364;2022-09-01T09:37:23;24.70;90.30
15407;DHT22;7802;51.568;6.364;2022-09-01T09:40:12;24.70;88.00
15407;DHT22;7802;51.568;6.364;2022-09-01T09:43:04;25.00;88.10
15407;DHT22;7802;51.568;6.364;2022-09-01T09:46:25;25.00;86.40
15407;DHT22;7802;51.568;6.364;2022-09-01T09:49:16;25.10;85.30
15407;DHT22;7802;51.568;6.364;2022-09-01T09:52:22;24.90;86.70
15407;DHT22;7802;51.568;6.364;2022-09-01T09:55:21;25.00;85.10
15407;DHT22;7802;51.568;6.364;2022-09-01T09:58:10;25.10;84.30
15407;DHT22;7802;51.568;6.364;2022-09-01T10:00:59;25.00;78.20
15407;DHT22;7802;51.568;6.364;2022-09-01T10:03:49;25.10;80.20
15407;DHT22;7802;51.568;6.364;2022-09-01T10:06:39;25.10;80.40
15407;DHT22;7802;51.568;6.364;2022-09-01T10:09:35;25.00;82.70
15407;DHT22;7802;51.568;6.364;2022-09-01T10:12:23;25.00;80.40
15407;DHT22;7802;51.568;6.364;2022-09-01T10:15:11;25.10;79.80
15407;DHT22;7802;51.568;6.364;2022-09-01T10:18:05;25.10;80.60
15407;DHT22;7802;51.568;6.364;2022-09-01T10:21:11;24.90;82.00
15407;DHT22;7802;51.568;6.364;2022-09-01T10:23:59;25.10;81.80
15407;DHT22;7802;51.568;6.364;2022-09-01T10:27:14;25.10;80.80
15407;DHT22;7802;51.568;6.364;2022-09-01T10:30:06;25.00;80.20
15407;DHT22;7802;51.568;6.364;2022-09-01T10:33:06;25.10;82.20
15407;DHT22;7802;51.568;6.364;2022-09-01T10:36:06;25.10;79.20
15407;DHT22;7802;51.568;6.364;2022-09-01T10:38:54;24.90;81.00
15407;DHT22;7802;51.568;6.364;2022-09-01T10:41:52;25.00;79.80
15407;DHT22;7802;51.568;6.364;2022-09-01T10:44:56;25.20;80.70
15407;DHT22;7802;51.568;6.364;2022-09-01T10:47:44;25.20;78.90
15407;DHT22;7802;51.568;6.364;2022-09-01T10:50:32;25.00;79.60
15407;DHT22;7802;51.568;6.364;2022-09-01T10:53:38;25.00;80.20
15407;DHT22;7802;51.568;6.364;2022-09-01T10:56:38;25.00;80.20
15407;DHT22;7802;51.568;6.364;2022-09-01T10:59:30;25.00;79.70
15407;DHT22;7802;51.568;6.364;2022-09-01T11:02:22;24.90;79.50
15407;DHT22;7802;51.568;6.364;2022-09-01T11:05:15;25.00;79.90
15407;DHT22;7802;51.568;6.364;2022-09-01T11:08:21;24.90;78.60
15407;DHT22;7802;51.568;6.364;2022-09-01T11:11:28;24.90;80.20
15407;DHT22;7802;51.568;6.364;2022-09-01T11:14:27;24.80;81.10
15407;DHT22;7802;51.568;6.364;2022-09-01T11:17:37;24.90;81.70
15407;DHT22;7802;51.568;6.364;2022-09-01T11:20:27;24.80;80.50
15407;DHT22;7802;51.568;6.364;2022-09-01T11:23:22;24.90;82.20
15407;DHT22;7802;51.568;6.364;2022-09-01T11:26:43;24.80;80.60
15407;DHT22;7802;51.568;6.364;2022-09-01T11:30:01;24.70;79.80
15407;DHT22;7802;51.568;6.364;2022-09-01T11:32:57;24.80;80.70
15407;DHT22;7802;51.568;6.364;2022-09-01T11:35:45;24.70;77.70
15407;DHT22;7802;51.568;6.364;2022-09-01T11:38:44;24.60;78.80
15407;DHT22;7802;51.568;6.364;2022-09-01T11:44:33;24.70;78.80
15407;DHT22;7802;51.568;6.364;2022-09-01T11:47:24;24.50;79.50
15407;DHT22;7802;51.568;6.364;2022-09-01T11:50:19;24.50;80.60
15407;DHT22;7802;51.568;6.364;2022-09-01T11:53:09;24.40;79.00
15407;DHT22;7802;51.568;6.364;2022-09-01T11:56:13;24.40;79.90
15407;DHT22;7802;51.568;6.364;2022-09-01T11:59:00;24.30;78.70
15407;DHT22;7802;51.568;6.364;2022-09-01T12:01:47;24.30;78.00
15407;DHT22;7802;51.568;6.364;2022-09-01T12:04:35;24.40;79.10
15407;DHT22;7802;51.568;6.364;2022-09-01T12:07:27;24.40;79.30
15407;DHT22;7802;51.568;6.364;2022-09-01T12:10:18;24.30;79.90
15407;DHT22;7802;51.568;6.364;2022-09-01T12:13:08;24.40;81.30
15407;DHT22;7802;51.568;6.364;2022-09-01T12:15:58;24.40;80.60
15407;DHT22;7802;51.568;6.364;2022-09-01T12:19:05;24.30;80.70
15407;DHT22;7802;51.568;6.364;2022-09-01T12:21:57;24.30;81.20
15407;DHT22;7802;51.568;6.364;2022-09-01T12:24:46;24.30;80.90
15407;DHT22;7802;51.568;6.364;2022-09-01T12:27:34;24.20;80.50
15407;DHT22;7802;51.568;6.364;2022-09-01T12:30:23;24.20;81.20
15407;DHT22;7802;51.568;6.364;2022-09-01T12:33:11;24.30;80.30
15407;DHT22;7802;51.568;6.364;2022-09-01T12:36:21;24.30;79.90
15407;DHT22;7802;51.568;6.364;2022-09-01T12:39:19;24.20;79.50
15407;DHT22;7802;51.568;6.364;2022-09-01T12:42:10;24.20;81.90
15407;DHT22;7802;51.568;6.364;2022-09-01T12:44:59;24.30;82.40
15407;DHT22;7802;51.568;6.364;2022-09-01T12:47:48;24.20;81.30
15407;DHT22;7802;51.568;6.364;2022-09-01T12:50:44;24.20;80.30
15407;DHT22;7802;51.568;6.364;2022-09-01T12:53:32;24.20;79.60
15407;DHT22;7802;51.568;6.364;2022-09-01T12:56:28;24.20;81.20
15407;DHT22;7802;51.568;6.364;2022-09-01T12:59:23;24.30;81.10
15407;DHT22;7802;51.568;6.364;2022-09-01T13:02:27;24.30;81.90
15407;DHT22;7802;51.568;6.364;2022-09-01T13:05:24;24.30;81.80
15407;DHT22;7802;51.568;6.364;2022-09-01T13:08:18;24.30;82.40
15407;DHT22;7802;51.568;6.364;2022-09-01T13:11:07;24.30;83.90
15407;DHT22;7802;51.568;6.364;2022-09-01T13:13:54;24.40;82.20
15407;DHT22;7802;51.568;6.364;2022-09-01T13:16:41;24.20;81.50
15407;DHT22;7802;51.568;6.364;2022-09-01T13:19:29;24.20;82.30
15407;DHT22;7802;51.568;6.364;2022-09-01T13:22:17;24.30;82.40
15407;DHT22;7802;51.568;6.364;2022-09-01T13:25:05;24.30;82.20
15407;DHT22;7802;51.568;6.364;2022-09-01T13:27:52;24.30;82.30
15407;DHT22;7802;51.568;6.364;2022-09-01T13:30:40;24.30;83.20
15407;DHT22;7802;51.568;6.364;2022-09-01T13:33:28;24.30;83.00
15407;DHT22;7802;51.568;6.364;2022-09-01T13:36:16;24.30;83.40
15407;DHT22;7802;51.568;6.364;2022-09-01T13:39:25;24.30;82.60
15407;DHT22;7802;51.568;6.364;2022-09-01T13:42:12;24.20;83.40
15407;DHT22;7802;51.568;6.364;2022-09-01T13:44:59;24.30;84.70
15407;DHT22;7802;51.568;6.364;2022-09-01T13:47:47;24.40;84.60
15407;DHT22;7802;51.568;6.364;2022-09-01T13:50:56;24.50;84.50
15407;DHT22;7802;51.568;6.364;2022-09-01T13:54:03;24.30;84.60
15407;DHT22;7802;51.568;6.364;2022-09-01T13:56:53;24.00;84.50
15407;DHT22;7802;51.568;6.364;2022-09-01T13:59:39;23.80;85.10
15407;DHT22;7802;51.568;6.364;2022-09-01T14:02:27;23.70;85.80
15407;DHT22;7802;51.568;6.364;2022-09-01T14:05:14;23.70;86.00
15407;DHT22;7802;51.568;6.364;2022-09-01T14:08:01;23.80;86.10
15407;DHT22;7802;51.568;6.364;2022-09-01T14:10:50;24.10;85.30
15407;DHT22;7802;51.568;6.364;2022-09-01T14:13:38;24.30;84.70
15407;DHT22;7802;51.568;6.364;2022-09-01T14:16:25;24.40;84.10
15407;DHT22;7802;51.568;6.364;2022-09-01T14:19:13;24.40;84.10
15407;DHT22;7802;51.568;6.364;2022-09-01T14:22:01;24.30;84.70
15407;DHT22;7802;51.568;6.364;2022-09-01T14:24:51;24.20;84.50
15407;DHT22;7802;51.568;6.364;2022-09-01T14:27:38;24.00;84.10
15407;DHT22;7802;51.568;6.364;2022-09-01T14:30:29;23.90;85.20
15407;DHT22;7802;51.568;6.364;2022-09-01T14:33:18;24.00;85.90
15407;DHT22;7802;51.568;6.364;2022-09-01T14:36:18;24.10;86.10
15407;DHT22;7802;51.568;6.364;2022-09-01T14:39:05;24.20;85.80
15407;DHT22;7802;51.568;6.364;2022-09-01T14:41:52;24.10;85.80
15407;DHT22;7802;51.568;6.364;2022-09-01T14:44:40;24.10;84.90
15407;DHT22;7802;51.568;6.364;2022-09-01T14:47:29;24.20;85.00
15407;DHT22;7802;51.568;6.364;2022-09-01T14:50:19;24.20;84.80
15407;DHT22;7802;51.568;6.364;2022-09-01T14:53:10;24.10;84.90
15407;DHT22;7802;51.568;6.364;2022-09-01T14:55:58;24.10;85.50
15407;DHT22;7802;51.568;6.364;2022-09-01T14:58:46;24.20;85.60
15407;DHT22;7802;51.568;6.364;2022-09-01T15:01:33;24.20;85.90
15407;DHT22;7802;51.568;6.364;2022-09-01T15:04:22;24.30;85.70
15407;DHT22;7802;51.568;6.364;2022-09-01T15:07:09;24.40;85.80
15407;DHT22;7802;51.568;6.364;2022-09-01T15:09:58;24.40;85.60
15407;DHT22;7802;51.568;6.364;2022-09-01T15:12:45;24.40;86.10
15407;DHT22;7802;51.568;6.364;2022-09-01T15:15:32;24.40;86.00
15407;DHT22;7802;51.568;6.364;2022-09-01T15:18:20;24.40;86.00
15407;DHT22;7802;51.568;6.364;2022-09-01T15:21:16;24.40;85.10
15407;DHT22;7802;51.568;6.364;2022-09-01T15:24:05;24.40;85.80
15407;DHT22;7802;51.568;6.364;2022-09-01T15:26:52;24.40;85.00
15407;DHT22;7802;51.568;6.364;2022-09-01T15:29:39;24.30;84.60
15407;DHT22;7802;51.568;6.364;2022-09-01T15:32:33;24.20;85.20
15407;DHT22;7802;51.568;6.364;2022-09-01T15:35:21;24.20;85.80
15407;DHT22;7802;51.568;6.364;2022-09-01T15:38:09;24.20;86.20
15407;DHT22;7802;51.568;6.364;2022-09-01T15:41:00;24.20;86.50
15407;DHT22;7802;51.568;6.364;2022-09-01T15:43:47;24.10;86.40
15407;DHT22;7802;51.568;6.364;2022-09-01T15:47:35;24.10;87.20
15407;DHT22;7802;51.568;6.364;2022-09-01T15:50:25;24.10;86.40
15407;DHT22;7802;51.568;6.364;2022-09-01T15:53:14;24.20;86.50
15407;DHT22;7802;51.568;6.364;2022-09-01T15:56:02;24.20;85.50
15407;DHT22;7802;51.568;6.364;2022-09-01T15:58:49;24.20;85.80
15407;DHT22;7802;51.568;6.364;2022-09-01T16:01:47;24.20;85.90
15407;DHT22;7802;51.568;6.364;2022-09-01T16:04:35;24.20;86.00
15407;DHT22;7802;51.568;6.364;2022-09-01T16:07:22;24.20;85.40
15407;DHT22;7802;51.568;6.364;2022-09-01T16:10:13;24.10;85.80
15407;DHT22;7802;51.568;6.364;2022-09-01T16:13:00;24.10;85.40
15407;DHT22;7802;51.568;6.364;2022-09-01T16:15:52;24.00;85.50
15407;DHT22;7802;51.568;6.364;2022-09-01T16:18:49;24.00;86.20
15407;DHT22;7802;51.568;6.364;2022-09-01T16:21:45;24.00;86.10
15407;DHT22;7802;51.568;6.364;2022-09-01T16:24:39;24.00;85.80
15407;DHT22;7802;51.568;6.364;2022-09-01T16:27:31;24.00;86.20
15407;DHT22;7802;51.568;6.364;2022-09-01T16:30:21;24.00;85.70
15407;DHT22;7802;51.568;6.364;2022-09-01T16:33:08;24.00;85.90
15407;DHT22;7802;51.568;6.364;2022-09-01T16:36:13;24.00;86.10
15407;DHT22;7802;51.568;6.364;2022-09-01T16:39:11;23.90;85.30
15407;DHT22;7802;51.568;6.364;2022-09-01T16:42:06;23.80;85.60
15407;DHT22;7802;51.568;6.364;2022-09-01T16:45:06;23.80;85.40
15407;DHT22;7802;51.568;6.364;2022-09-01T16:48:01;23.70;85.30
15407;DHT22;7802;51.568;6.364;2022-09-01T16:50:56;23.60;84.80
15407;DHT22;7802;51.568;6.364;2022-09-01T16:53:55;23.60;84.80
15407;DHT22;7802;51.568;6.364;2022-09-01T16:56:51;23.60;84.80
15407;DHT22;7802;51.568;6.364;2022-09-01T16:59:43;23.60;85.10
15407;DHT22;7802;51.568;6.364;2022-09-01T17:02:47;23.50;85.00
15407;DHT22;7802;51.568;6.364;2022-09-01T17:05:39;23.50;85.30
15407;DHT22;7802;51.568;6.364;2022-09-01T17:08:30;23.40;85.20
15407;DHT22;7802;51.568;6.364;2022-09-01T17:11:25;23.30;85.50
15407;DHT22;7802;51.568;6.364;2022-09-01T17:14:16;23.30;85.00
15407;DHT22;7802;51.568;6.364;2022-09-01T17:17:10;23.30;85.10
15407;DHT22;7802;51.568;6.364;2022-09-01T17:20:00;23.20;84.90
15407;DHT22;7802;51.568;6.364;2022-09-01T17:22:50;23.20;85.30
15407;DHT22;7802;51.568;6.364;2022-09-01T17:25:42;23.10;85.40
15407;DHT22;7802;51.568;6.364;2022-09-01T17:28:34;23.00;85.90
15407;DHT22;7802;51.568;6.364;2022-09-01T17:31:33;22.90;85.70
15407;DHT22;7802;51.568;6.364;2022-09-01T17:34:32;22.90;86.00
15407;DHT22;7802;51.568;6.364;2022-09-01T17:37:27;22.80;86.50
15407;DHT22;7802;51.568;6.364;2022-09-01T17:40:21;22.70;86.50
15407;DHT22;7802;51.568;6.364;2022-09-01T17:43:13;22.70;86.50
15407;DHT22;7802;51.568;6.364;2022-09-01T17:46:09;22.60;86.90
15407;DHT22;7802;51.568;6.364;2022-09-01T17:49:04;22.60;86.90
15407;DHT22;7802;51.568;6.364;2022-09-01T17:51:56;22.50;87.00
15407;DHT22;7802;51.568;6.364;2022-09-01T17:54:51;22.40;87.10
15407;DHT22;7802;51.568;6.364;2022-09-01T17:57:48;22.40;87.90
15407;DHT22;7802;51.568;6.364;2022-09-01T18:00:41;22.30;87.90
15407;DHT22;7802;51.568;6.364;2022-09-01T18:03:46;22.20;88.20
15407;DHT22;7802;51.568;6.364;2022-09-01T18:06:44;22.00;88.40
15407;DHT22;7802;51.568;6.364;2022-09-01T18:09:40;21.90;88.60
15407;DHT22;7802;51.568;6.364;2022-09-01T18:12:32;21.80;89.40
15407;DHT22;7802;51.568;6.364;2022-09-01T18:15:22;21.70;89.10
15407;DHT22;7802;51.568;6.364;2022-09-01T18:18:22;21.60;89.10
15407;DHT22;7802;51.568;6.364;2022-09-01T18:21:13;21.50;89.20
15407;DHT22;7802;51.568;6.364;2022-09-01T18:24:12;21.40;89.50
15407;DHT22;7802;51.568;6.364;2022-09-01T18:27:00;21.20;90.00
15407;DHT22;7802;51.568;6.364;2022-09-01T18:29:47;21.20;90.00
15407;DHT22;7802;51.568;6.364;2022-09-01T18:32:40;21.10;90.10
15407;DHT22;7802;51.568;6.364;2022-09-01T18:35:35;21.00;90.30
15407;DHT22;7802;51.568;6.364;2022-09-01T18:38:32;20.90;90.30
15407;DHT22;7802;51.568;6.364;2022-09-01T18:41:31;20.80;90.50
15407;DHT22;7802;51.568;6.364;2022-09-01T18:44:37;20.70;90.80
15407;DHT22;7802;51.568;6.364;2022-09-01T18:47:30;20.60;90.70
15407;DHT22;7802;51.568;6.364;2022-09-01T18:50:22;20.60;90.50
15407;DHT22;7802;51.568;6.364;2022-09-01T18:53:20;20.60;90.70
15407;DHT22;7802;51.568;6.364;2022-09-01T18:56:17;20.50;90.70
15407;DHT22;7802;51.568;6.364;2022-09-01T18:59:28;20.50;90.70
15407;DHT22;7802;51.568;6.364;2022-09-01T19:02:37;20.50;90.80
15407;DHT22;7802;51.568;6.364;2022-09-01T19:05:37;20.40;91.00
15407;DHT22;7802;51.568;6.364;2022-09-01T19:08:46;20.30;91.10
15407;DHT22;7802;51.568;6.364;2022-09-01T19:11:46;20.30;91.20
15407;DHT22;7802;51.568;6.364;2022-09-01T19:14:43;20.30;91.20
15407;DHT22;7802;51.568;6.364;2022-09-01T19:17:43;20.20;91.60
15407;DHT22;7802;51.568;6.364;2022-09-01T19:20:38;20.20;91.50
15407;DHT22;7802;51.568;6.364;2022-09-01T19:23:34;20.10;91.70
15407;DHT22;7802;51.568;6.364;2022-09-01T19:26:24;20.00;91.80
15407;DHT22;7802;51.568;6.364;2022-09-01T19:29:14;20.00;92.00
15407;DHT22;7802;51.568;6.364;2022-09-01T19:32:07;19.90;92.20
15407;DHT22;7802;51.568;6.364;2022-09-01T19:34:57;19.80;92.30
15407;DHT22;7802;51.568;6.364;2022-09-01T19:37:45;19.80;92.50
15407;DHT22;7802;51.568;6.364;2022-09-01T19:40:38;19.70;92.50
15407;DHT22;7802;51.568;6.364;2022-09-01T19:43:31;19.70;92.50
15407;DHT22;7802;51.568;6.364;2022-09-01T19:46:26;19.70;92.80
15407;DHT22;7802;51.568;6.364;2022-09-01T19:49:22;19.60;93.10
15407;DHT22;7802;51.568;6.364;2022-09-01T19:52:20;19.50;93.20
15407;DHT22;7802;51.568;6.364;2022-09-01T19:55:13;19.50;93.10
15407;DHT22;7802;51.568;6.364;2022-09-01T19:58:04;19.40;93.40
15407;DHT22;7802;51.568;6.364;2022-09-01T20:00:54;19.30;93.90
15407;DHT22;7802;51.568;6.364;2022-09-01T20:03:45;19.20;93.80
15407;DHT22;7802;51.568;6.364;2022-09-01T20:06:34;19.20;94.10
15407;DHT22;7802;51.568;6.364;2022-09-01T20:09:27;19.20;94.20
15407;DHT22;7802;51.568;6.364;2022-09-01T20:12:25;19.10;94.20
15407;DHT22;7802;51.568;6.364;2022-09-01T20:15:18;19.10;94.20
15407;DHT22;7802;51.568;6.364;2022-09-01T20:18:09;19.10;94.10
15407;DHT22;7802;51.568;6.364;2022-09-01T20:21:08;19.10;94.20
15407;DHT22;7802;51.568;6.364;2022-09-01T20:24:13;19.00;94.40
15407;DHT22;7802;51.568;6.364;2022-09-01T20:27:17;19.00;94.60
15407;DHT22;7802;51.568;6.364;2022-09-01T20:30:10;19.00;94.50
15407;DHT22;7802;51.568;6.364;2022-09-01T20:33:03;19.00;94.50
15407;DHT22;7802;51.568;6.364;2022-09-01T20:35:56;18.90;94.80
15407;DHT22;7802;51.568;6.364;2022-09-01T20:38:50;18.90;94.80
15407;DHT22;7802;51.568;6.364;2022-09-01T20:42:00;18.90;94.90
15407;DHT22;7802;51.568;6.364;2022-09-01T20:44:55;18.80;94.90
15407;DHT22;7802;51.568;6.364;2022-09-01T20:47:46;18.80;95.00
15407;DHT22;7802;51.568;6.364;2022-09-01T20:50:39;18.80;95.00
15407;DHT22;7802;51.568;6.364;2022-09-01T20:53:44;18.80;95.00
15407;DHT22;7802;51.568;6.364;2022-09-01T20:56:41;18.80;95.00
15407;DHT22;7802;51.568;6.364;2022-09-01T20:59:37;18.80;95.20
15407;DHT22;7802;51.568;6.364;2022-09-01T21:02:40;18.70;95.20
15407;DHT22;7802;51.568;6.364;2022-09-01T21:05:38;18.60;95.30
15407;DHT22;7802;51.568;6.364;2022-09-01T21:08:40;18.60;95.50
15407;DHT22;7802;51.568;6.364;2022-09-01T21:11:39;18.60;95.60
15407;DHT22;7802;51.568;6.364;2022-09-01T21:14:38;18.50;95.60
15407;DHT22;7802;51.568;6.364;2022-09-01T21:17:33;18.50;95.70
15407;DHT22;7802;51.568;6.364;2022-09-01T21:20:30;18.50;95.70
15407;DHT22;7802;51.568;6.364;2022-09-01T21:23:20;18.50;95.70
15407;DHT22;7802;51.568;6.364;2022-09-01T21:26:08;18.50;95.80
15407;DHT22;7802;51.568;6.364;2022-09-01T21:28:57;18.40;96.00
15407;DHT22;7802;51.568;6.364;2022-09-01T21:31:48;18.30;96.10
15407;DHT22;7802;51.568;6.364;2022-09-01T21:34:36;18.30;96.10
15407;DHT22;7802;51.568;6.364;2022-09-01T21:37:24;18.30;96.30
15407;DHT22;7802;51.568;6.364;2022-09-01T21:40:12;18.20;96.50
15407;DHT22;7802;51.568;6.364;2022-09-01T21:43:03;18.20;96.50
15407;DHT22;7802;51.568;6.364;2022-09-01T21:45:50;18.10;96.50
15407;DHT22;7802;51.568;6.364;2022-09-01T21:48:37;18.10;96.60
15407;DHT22;7802;51.568;6.364;2022-09-01T21:51:24;18.10;96.60
15407;DHT22;7802;51.568;6.364;2022-09-01T21:54:12;18.10;96.60
15407;DHT22;7802;51.568;6.364;2022-09-01T21:56:59;18.20;96.60
15407;DHT22;7802;51.568;6.364;2022-09-01T21:59:47;18.10;96.60
15407;DHT22;7802;51.568;6.364;2022-09-01T22:02:34;18.10;96.80
15407;DHT22;7802;51.568;6.364;2022-09-01T22:05:21;18.10;96.70
15407;DHT22;7802;51.568;6.364;2022-09-01T22:08:12;18.10;96.70
15407;DHT22;7802;51.568;6.364;2022-09-01T22:11:06;18.00;96.80
15407;DHT22;7802;51.568;6.364;2022-09-01T22:13:56;18.00;96.90
15407;DHT22;7802;51.568;6.364;2022-09-01T22:16:43;18.00;96.90
15407;DHT22;7802;51.568;6.364;2022-09-01T22:19:32;17.90;97.00
15407;DHT22;7802;51.568;6.364;2022-09-01T22:22:19;17.90;97.10
15407;DHT22;7802;51.568;6.364;2022-09-01T22:25:08;17.80;97.20
15407;DHT22;7802;51.568;6.364;2022-09-01T22:27:57;17.80;97.30
15407;DHT22;7802;51.568;6.364;2022-09-01T22:30:45;17.70;97.40
15407;DHT22;7802;51.568;6.364;2022-09-01T22:33:33;17.70;97.50
15407;DHT22;7802;51.568;6.364;2022-09-01T22:36:21;17.70;97.60
15407;DHT22;7802;51.568;6.364;2022-09-01T22:39:10;17.60;97.90
15407;DHT22;7802;51.568;6.364;2022-09-01T22:41:57;17.60;97.90
15407;DHT22;7802;51.568;6.364;2022-09-01T22:44:45;17.50;97.70
15407;DHT22;7802;51.568;6.364;2022-09-01T22:47:33;17.50;97.80
15407;DHT22;7802;51.568;6.364;2022-09-01T22:50:24;17.50;98.00
15407;DHT22;7802;51.568;6.364;2022-09-01T22:53:13;17.40;98.00
15407;DHT22;7802;51.568;6.364;2022-09-01T22:56:01;17.40;98.00
15407;DHT22;7802;51.568;6.364;2022-09-01T22:58:49;17.40;98.20
15407;DHT22;7802;51.568;6.364;2022-09-01T23:01:40;17.30;98.20
15407;DHT22;7802;51.568;6.364;2022-09-01T23:04:28;17.30;98.40
15407;DHT22;7802;51.568;6.364;2022-09-01T23:07:17;17.30;98.50
15407;DHT22;7802;51.568;6.364;2022-09-01T23:10:05;17.20;98.50
15407;DHT22;7802;51.568;6.364;2022-09-01T23:12:52;17.20;98.50
15407;DHT22;7802;51.568;6.364;2022-09-01T23:15:39;17.10;98.50
15407;DHT22;7802;51.568;6.364;2022-09-01T23:18:29;17.10;98.60
15407;DHT22;7802;51.568;6.364;2022-09-01T23:21:18;17.10;98.80
15407;DHT22;7802;51.568;6.364;2022-09-01T23:24:05;17.00;98.80
15407;DHT22;7802;51.568;6.364;2022-09-01T23:26:52;17.00;99.00
15407;DHT22;7802;51.568;6.364;2022-09-01T23:29:39;16.90;99.20
15407;DHT22;7802;51.568;6.364;2022-09-01T23:32:27;16.90;99.20
15407;DHT22;7802;51.568;6.364;2022-09-01T23:35:14;16.90;99.20
15407;DHT22;7802;51.568;6.364;2022-09-01T23:38:02;16.80;99.30
15407;DHT22;7802;51.568;6.364;2022-09-01T23:40:51;16.80;99.40
15407;DHT22;7802;51.568;6.364;2022-09-01T23:43:39;16.70;99.60
15407;DHT22;7802;51.568;6.364;2022-09-01T23:46:28;16.70;99.90
15407;DHT22;7802;51.568;6.364;2022-09-01T23:49:17;16.60;99.90
15407;DHT22;7802;51.568;6.364;2022-09-01T23:52:05;16.60;99.90
15407;DHT22;7802;51.568;6.364;2022-09-01T23:54:52;16.50;99.90
15407;DHT22;7802;51.568;6.364;2022-09-01T23:57:39;16.40;99.90
